createdAt,value
2023-09-30T00:01:12.660Z,4.00
2023-09-30T00:03:40.102Z,4.13
2023-09-30T00:06:07.063Z,4.40
2023-09-30T00:08:33.910Z,4.57
2023-09-30T00:11:00.853Z,3.80
2023-09-30T00:13:27.808Z,4.27
2023-09-30T00:15:54.790Z,4.63
2023-09-30T00:18:21.821Z,4.43
2023-09-30T00:20:49.217Z,5.20
2023-09-30T00:23:16.192Z,4.70
2023-09-30T00:25:43.123Z,4.43
2023-09-30T00:28:10.059Z,4.90
2023-09-30T00:30:37.164Z,4.30
2023-09-30T00:33:04.577Z,4.90
2023-09-30T00:35:33.987Z,4.33
2023-09-30T00:38:00.899Z,5.37
2023-09-30T00:40:27.848Z,4.73
2023-09-30T00:42:55.105Z,4.97
2023-09-30T00:45:22.163Z,4.87
2023-09-30T00:47:49.709Z,5.17
2023-09-30T00:50:16.938Z,5.70
2023-09-30T00:52:46.343Z,5.23
2023-09-30T00:55:13.678Z,5.47
2023-09-30T00:57:40.930Z,5.50
2023-09-30T01:00:13.425Z,5.63
2023-09-30T01:02:42.751Z,5.27
2023-09-30T01:05:10.692Z,5.57
2023-09-30T01:07:38.184Z,6.00
2023-09-30T01:10:05.903Z,6.13
2023-09-30T01:12:33.279Z,5.50
2023-09-30T01:15:06.920Z,5.97
2023-09-30T01:17:34.912Z,5.70
2023-09-30T01:20:02.141Z,6.40
2023-09-30T01:22:31.201Z,5.77
2023-09-30T01:24:58.051Z,5.97
2023-09-30T01:27:26.668Z,5.43
2023-09-30T01:29:53.659Z,5.87
2023-09-30T01:32:20.628Z,6.60
2023-09-30T01:34:47.514Z,6.27
2023-09-30T01:37:14.489Z,5.87
2023-09-30T01:39:41.731Z,6.63
2023-09-30T01:42:08.638Z,5.93
2023-09-30T01:44:35.653Z,6.37
2023-09-30T01:47:02.558Z,5.90
2023-09-30T01:49:29.440Z,6.37
2023-09-30T01:51:56.344Z,6.30
2023-09-30T01:54:23.474Z,6.83
2023-09-30T01:56:50.972Z,5.90
2023-09-30T01:59:18.217Z,7.10
2023-09-30T02:01:47.324Z,6.97
2023-09-30T02:04:16.584Z,6.40
2023-09-30T02:06:43.992Z,6.57
2023-09-30T02:09:11.002Z,7.10
2023-09-30T02:11:38.844Z,7.03
2023-09-30T02:14:08.845Z,7.00
2023-09-30T02:16:35.692Z,6.60
2023-09-30T02:19:03.717Z,7.10
2023-09-30T02:21:30.655Z,7.00
2023-09-30T02:23:58.349Z,7.00
2023-09-30T02:26:26.746Z,6.80
2023-09-30T02:28:55.255Z,6.90
2023-09-30T02:31:22.213Z,6.90
2023-09-30T02:33:49.141Z,6.63
2023-09-30T02:36:16.810Z,7.03
2023-09-30T02:38:44.574Z,6.40
2023-09-30T02:41:11.599Z,7.30
2023-09-30T02:43:39.587Z,7.13
2023-09-30T02:46:06.737Z,7.87
2023-09-30T02:48:33.771Z,8.07
2023-09-30T02:51:00.790Z,7.50
2023-09-30T02:53:28.867Z,7.47
2023-09-30T02:55:57.890Z,7.10
2023-09-30T02:58:25.830Z,7.20
2023-09-30T03:00:54.049Z,7.20
2023-09-30T03:03:21.130Z,7.80
2023-09-30T03:05:50.096Z,8.00
2023-09-30T03:08:17.252Z,7.50
2023-09-30T03:10:44.240Z,8.20
2023-09-30T03:13:11.253Z,7.87
2023-09-30T03:15:38.316Z,8.30
2023-09-30T03:18:06.090Z,8.13
2023-09-30T03:20:33.262Z,9.13
2023-09-30T03:23:00.610Z,8.13
2023-09-30T03:25:28.150Z,8.33
2023-09-30T03:27:55.338Z,9.00
2023-09-30T03:30:22.576Z,8.20
2023-09-30T03:32:50.078Z,8.80
2023-09-30T03:35:20.644Z,9.70
2023-09-30T03:37:48.687Z,8.90
2023-09-30T03:40:19.912Z,8.77
2023-09-30T03:42:50.802Z,9.87
2023-09-30T03:45:18.577Z,9.60
2023-09-30T03:47:46.952Z,9.43
2023-09-30T03:50:15.867Z,9.93
2023-09-30T03:52:46.362Z,8.57
2023-09-30T03:55:17.135Z,9.63
2023-09-30T03:57:49.098Z,8.77
2023-09-30T04:00:20.448Z,9.20
2023-09-30T04:02:50.367Z,10.83
2023-09-30T04:05:18.138Z,10.17
2023-09-30T04:07:45.192Z,10.60
2023-09-30T04:10:12.252Z,10.47
2023-09-30T04:12:39.406Z,10.43
2023-09-30T04:15:06.713Z,10.70
2023-09-30T04:17:34.111Z,10.10
2023-09-30T04:20:01.113Z,10.57
2023-09-30T04:22:29.449Z,11.50
2023-09-30T04:24:56.393Z,11.07
2023-09-30T04:27:23.416Z,10.93
2023-09-30T04:29:50.681Z,11.77
2023-09-30T04:32:17.962Z,11.33
2023-09-30T04:34:47.102Z,11.80
2023-09-30T04:37:15.164Z,12.03
2023-09-30T04:39:42.338Z,11.77
2023-09-30T04:42:12.466Z,11.97
2023-09-30T04:44:40.031Z,11.30
2023-09-30T04:47:06.944Z,12.00
2023-09-30T04:49:33.778Z,12.63
2023-09-30T04:52:01.336Z,12.47
2023-09-30T04:54:30.632Z,11.33
2023-09-30T04:56:57.708Z,11.33
2023-09-30T04:59:26.087Z,11.43
2023-09-30T05:01:53.125Z,11.97
2023-09-30T05:04:20.074Z,11.30
2023-09-30T05:06:47.136Z,12.57
2023-09-30T05:09:14.320Z,12.47
2023-09-30T05:11:41.214Z,12.87
2023-09-30T05:14:08.202Z,11.90
2023-09-30T05:16:35.331Z,11.77
2023-09-30T05:19:02.394Z,12.57
2023-09-30T05:21:29.292Z,12.13
2023-09-30T05:23:57.729Z,12.90
2023-09-30T05:26:24.787Z,12.90
2023-09-30T05:28:51.744Z,12.70
2023-09-30T05:31:18.763Z,12.97
2023-09-30T05:33:45.802Z,12.33
2023-09-30T05:36:14.497Z,12.63
2023-09-30T05:38:41.398Z,12.83
2023-09-30T05:41:09.723Z,12.43
2023-09-30T05:43:36.564Z,12.00
2023-09-30T05:46:03.790Z,13.00
2023-09-30T05:48:31.082Z,12.50
2023-09-30T05:50:58.230Z,13.80
2023-09-30T05:53:26.193Z,12.43
2023-09-30T05:55:53.045Z,12.70
2023-09-30T05:58:19.955Z,13.40
2023-09-30T06:00:46.939Z,12.90
2023-09-30T06:03:14.329Z,13.33
2023-09-30T06:05:42.462Z,12.93
2023-09-30T06:08:14.822Z,13.53
2023-09-30T06:10:45.596Z,12.37
2023-09-30T06:13:13.549Z,13.30
2023-09-30T06:15:41.839Z,13.23
2023-09-30T06:18:10.926Z,12.93
2023-09-30T06:20:37.955Z,13.33
2023-09-30T06:23:05.185Z,13.60
2023-09-30T06:25:34.066Z,12.73
2023-09-30T06:28:01.137Z,13.50
2023-09-30T06:30:31.916Z,12.67
2023-09-30T06:33:01.363Z,13.20
2023-09-30T06:35:31.362Z,13.30
2023-09-30T06:37:58.616Z,13.23
2023-09-30T06:40:25.473Z,12.67
2023-09-30T06:42:53.383Z,13.17
2023-09-30T06:45:20.618Z,13.17
2023-09-30T06:47:49.175Z,13.07
2023-09-30T06:50:17.387Z,14.67
2023-09-30T06:52:50.458Z,13.83
2023-09-30T06:55:18.007Z,13.37
2023-09-30T06:57:45.244Z,15.30
2023-09-30T07:00:14.334Z,16.00
2023-09-30T07:02:42.378Z,13.90
2023-09-30T07:05:10.553Z,13.93
2023-09-30T07:07:37.697Z,14.33
2023-09-30T07:10:06.778Z,14.50
2023-09-30T07:12:36.780Z,13.07
2023-09-30T07:15:05.794Z,12.60
2023-09-30T07:17:33.912Z,13.57
2023-09-30T07:20:01.127Z,16.37
2023-09-30T07:22:43.484Z,15.00
2023-09-30T07:25:16.022Z,14.80
2023-09-30T07:27:46.113Z,14.63
2023-09-30T07:30:16.456Z,14.23
2023-09-30T07:32:44.393Z,13.47
2023-09-30T07:35:13.099Z,13.43
2023-09-30T07:37:40.110Z,13.40
2023-09-30T07:40:07.725Z,12.17
2023-09-30T07:42:34.960Z,12.80
2023-09-30T07:45:02.336Z,13.40
2023-09-30T07:47:29.280Z,12.40
2023-09-30T07:49:56.441Z,12.70
2023-09-30T07:52:23.298Z,13.40
2023-09-30T07:54:50.342Z,13.23
2023-09-30T07:57:17.762Z,13.87
2023-09-30T07:59:44.587Z,12.77
2023-09-30T08:02:11.383Z,11.47
2023-09-30T08:04:38.287Z,13.10
2023-09-30T08:07:05.423Z,13.17
2023-09-30T08:09:32.380Z,11.50
2023-09-30T08:11:59.427Z,10.57
2023-09-30T08:14:26.769Z,10.37
2023-09-30T08:16:53.719Z,11.03
2023-09-30T08:19:21.898Z,11.23
2023-09-30T08:21:50.089Z,10.80
2023-09-30T08:24:17.337Z,9.80
2023-09-30T08:26:44.412Z,9.83
2023-09-30T08:29:11.323Z,9.33
2023-09-30T08:31:38.248Z,9.43
2023-09-30T08:34:05.269Z,9.20
2023-09-30T08:36:32.468Z,9.93
2023-09-30T08:38:59.689Z,9.53
2023-09-30T08:41:33.562Z,9.50
2023-09-30T08:44:04.914Z,9.60
2023-09-30T08:46:33.768Z,9.07
2023-09-30T08:49:04.006Z,8.47
2023-09-30T08:51:32.109Z,8.67
2023-09-30T08:54:00.675Z,8.67
2023-09-30T08:56:34.004Z,8.60
2023-09-30T08:59:03.345Z,8.70
2023-09-30T09:01:31.714Z,8.33
2023-09-30T09:03:59.136Z,8.57
2023-09-30T09:06:27.200Z,9.23
2023-09-30T09:08:54.433Z,8.53
2023-09-30T09:11:21.486Z,9.07
2023-09-30T09:13:57.181Z,9.17
2023-09-30T09:16:26.044Z,9.33
2023-09-30T09:18:53.314Z,9.20
2023-09-30T09:21:23.801Z,8.80
2023-09-30T09:23:53.075Z,8.47
2023-09-30T09:26:28.422Z,8.17
2023-09-30T09:29:00.075Z,9.43
2023-09-30T09:31:38.044Z,8.70
2023-09-30T09:34:14.052Z,6.80
2023-09-30T09:36:42.207Z,7.70
2023-09-30T09:39:09.295Z,8.10
2023-09-30T09:41:54.089Z,7.50
2023-09-30T09:44:23.349Z,6.90
2023-09-30T09:46:51.631Z,8.23
2023-09-30T09:49:19.894Z,7.30
2023-09-30T09:51:48.022Z,7.63
2023-09-30T09:54:16.749Z,6.57
2023-09-30T09:56:45.914Z,6.77
2023-09-30T09:59:14.406Z,7.80
2023-09-30T10:01:42.502Z,6.60
2023-09-30T10:04:12.159Z,5.87
2023-09-30T10:06:41.804Z,5.40
2023-09-30T10:09:11.355Z,5.33
2023-09-30T10:11:41.169Z,6.90
2023-09-30T10:14:14.199Z,5.60
2023-09-30T10:16:43.912Z,4.67
2023-09-30T10:19:11.670Z,4.67
2023-09-30T10:21:38.799Z,4.47
2023-09-30T10:24:24.072Z,4.93
2023-09-30T10:27:25.354Z,5.13
2023-09-30T10:30:11.316Z,4.60
2023-09-30T10:32:58.172Z,5.20
2023-09-30T10:35:28.179Z,4.37
2023-09-30T10:38:23.079Z,4.57
2023-09-30T10:40:53.785Z,4.50
2023-09-30T10:43:53.267Z,4.30
2023-09-30T10:46:29.279Z,3.87
2023-09-30T10:48:58.531Z,4.13
2023-09-30T10:51:25.753Z,3.80
2023-09-30T10:53:58.395Z,4.73
2023-09-30T10:56:32.581Z,4.37
2023-09-30T10:59:00.655Z,4.17
2023-09-30T11:01:35.434Z,3.93
2023-09-30T11:04:06.246Z,4.20
2023-09-30T11:06:33.656Z,4.20
2023-09-30T11:09:02.319Z,3.93
2023-09-30T11:11:43.513Z,3.40
2023-09-30T11:14:31.787Z,3.97
2023-09-30T11:17:00.806Z,3.63
2023-09-30T11:19:29.028Z,3.73
2023-09-30T11:21:56.781Z,3.40
2023-09-30T11:24:24.712Z,2.70
2023-09-30T11:26:56.835Z,3.00
2023-09-30T11:29:23.824Z,3.03
2023-09-30T11:31:52.310Z,3.37
2023-09-30T11:34:20.690Z,3.47
2023-09-30T11:36:54.601Z,2.60
2023-09-30T11:39:29.115Z,2.80
2023-09-30T11:41:58.280Z,2.90
2023-09-30T11:44:27.703Z,2.57
2023-09-30T11:46:57.234Z,2.77
2023-09-30T11:49:36.260Z,2.30
2023-09-30T11:52:11.097Z,3.43
2023-09-30T11:54:42.505Z,3.13
2023-09-30T11:57:16.198Z,2.87
2023-09-30T11:59:44.436Z,3.77
2023-09-30T12:02:14.802Z,3.70
2023-09-30T12:04:44.198Z,3.33
2023-09-30T12:07:11.638Z,3.67
2023-09-30T12:09:40.589Z,4.07
2023-09-30T12:12:12.948Z,3.47
2023-09-30T12:14:40.838Z,3.57
2023-09-30T12:17:12.363Z,4.37
2023-09-30T12:19:40.157Z,4.57
2023-09-30T12:22:07.699Z,3.13
2023-09-30T12:24:34.894Z,3.50
2023-09-30T12:27:02.628Z,2.60
2023-09-30T12:29:29.891Z,2.40
2023-09-30T12:31:56.953Z,2.67
2023-09-30T12:34:28.558Z,2.50
2023-09-30T12:36:58.439Z,2.70
2023-09-30T12:39:26.808Z,2.60
2023-09-30T12:41:55.212Z,2.60
2023-09-30T12:44:23.818Z,2.67
2023-09-30T12:46:51.290Z,2.53
2023-09-30T12:49:19.433Z,2.37
2023-09-30T12:51:47.174Z,2.53
2023-09-30T12:54:15.742Z,2.50
2023-09-30T12:56:43.019Z,2.40
2023-09-30T12:59:10.040Z,3.40
2023-09-30T13:01:36.999Z,2.87
2023-09-30T13:04:04.489Z,2.67
2023-09-30T13:06:33.675Z,2.77
2023-09-30T13:09:01.002Z,2.50
2023-09-30T13:11:28.689Z,2.40
2023-09-30T13:13:55.775Z,2.80
2023-09-30T13:16:23.444Z,2.53
2023-09-30T13:18:51.828Z,2.43
2023-09-30T13:21:19.134Z,2.97
2023-09-30T13:23:46.680Z,2.87
2023-09-30T13:26:13.642Z,2.57
2023-09-30T13:28:40.840Z,2.27
2023-09-30T13:31:08.353Z,2.87
2023-09-30T13:33:35.566Z,2.37
2023-09-30T13:36:03.759Z,2.30
2023-09-30T13:38:30.928Z,2.37
2023-09-30T13:40:57.826Z,2.90
2023-09-30T13:43:24.848Z,2.67
2023-09-30T13:45:52.001Z,2.60
2023-09-30T13:48:19.046Z,2.90
2023-09-30T13:50:46.022Z,3.07
2023-09-30T13:53:13.054Z,2.80
2023-09-30T13:55:40.709Z,2.77
2023-09-30T13:58:07.679Z,2.80
2023-09-30T14:00:34.736Z,3.20
2023-09-30T14:03:01.987Z,3.00
2023-09-30T14:05:29.047Z,3.20
2023-09-30T14:07:56.158Z,3.10
2023-09-30T14:10:23.095Z,3.13
2023-09-30T14:12:49.881Z,2.83
2023-09-30T14:15:16.909Z,3.50
2023-09-30T14:17:43.787Z,3.03
2023-09-30T14:20:13.344Z,3.43
2023-09-30T14:22:40.358Z,3.80
2023-09-30T14:25:08.647Z,3.13
2023-09-30T14:27:35.732Z,3.37
2023-09-30T14:30:02.791Z,3.07
2023-09-30T14:32:29.989Z,3.20
2023-09-30T14:34:57.622Z,3.40
2023-09-30T14:37:24.707Z,3.80
2023-09-30T14:39:51.771Z,3.90
2023-09-30T14:42:18.795Z,3.43
2023-09-30T14:44:45.746Z,3.60
2023-09-30T14:47:12.623Z,3.63
2023-09-30T14:49:39.757Z,4.10
2023-09-30T14:52:06.729Z,4.13
2023-09-30T14:54:33.926Z,3.97
2023-09-30T14:57:00.792Z,3.77
2023-09-30T14:59:27.971Z,4.07
2023-09-30T15:01:55.005Z,3.47
2023-09-30T15:04:22.028Z,3.50
2023-09-30T15:06:49.079Z,3.80
2023-09-30T15:09:15.953Z,3.20
2023-09-30T15:11:42.940Z,3.43
2023-09-30T15:14:09.817Z,3.50
2023-09-30T15:16:37.176Z,3.17
2023-09-30T15:19:04.332Z,3.43
2023-09-30T15:21:31.444Z,3.73
2023-09-30T15:23:58.582Z,3.37
2023-09-30T15:26:25.562Z,3.33
2023-09-30T15:28:52.934Z,3.30
2023-09-30T15:31:20.514Z,3.00
2023-09-30T15:33:47.807Z,3.13
2023-09-30T15:36:18.744Z,3.33
2023-09-30T15:38:47.602Z,3.20
2023-09-30T15:41:15.806Z,4.20
2023-09-30T15:43:44.087Z,3.90
2023-09-30T15:46:11.461Z,4.10
2023-09-30T15:48:38.511Z,4.20
2023-09-30T15:51:06.563Z,4.70
2023-09-30T15:53:37.430Z,3.50
2023-09-30T15:56:05.032Z,3.57
2023-09-30T15:58:31.857Z,3.77
2023-09-30T16:00:58.744Z,4.20
2023-09-30T16:03:25.838Z,3.33
2023-09-30T16:05:52.981Z,3.77
2023-09-30T16:08:22.857Z,3.53
2023-09-30T16:10:49.791Z,3.00
2023-09-30T16:13:16.739Z,3.47
2023-09-30T16:15:43.990Z,3.13
2023-09-30T16:18:11.527Z,3.70
2023-09-30T16:20:39.019Z,3.50
2023-09-30T16:23:06.002Z,2.80
2023-09-30T16:25:34.835Z,3.20
2023-09-30T16:28:01.768Z,3.20
2023-09-30T16:30:30.511Z,3.00
2023-09-30T16:32:58.630Z,3.17
2023-09-30T16:35:25.778Z,3.73
2023-09-30T16:37:52.630Z,3.17
2023-09-30T16:40:19.648Z,3.10
2023-09-30T16:42:46.608Z,3.53
2023-09-30T16:45:13.639Z,5.43
2023-09-30T16:47:40.688Z,6.47
2023-09-30T16:50:07.945Z,4.30
2023-09-30T16:52:34.804Z,4.03
2023-09-30T16:55:01.959Z,3.77
2023-09-30T16:57:28.963Z,3.67
2023-09-30T16:59:56.754Z,4.00
2023-09-30T17:02:24.146Z,3.37
2023-09-30T17:04:52.426Z,3.57
2023-09-30T17:07:19.985Z,3.50
2023-09-30T17:09:47.191Z,3.67
2023-09-30T17:12:14.645Z,3.30
2023-09-30T17:14:41.783Z,3.30
2023-09-30T17:17:08.888Z,3.27
2023-09-30T17:19:35.818Z,3.63
2023-09-30T17:22:02.810Z,2.93
2023-09-30T17:24:33.665Z,4.03
2023-09-30T17:27:00.699Z,3.40
2023-09-30T17:29:27.716Z,3.73
2023-09-30T17:31:55.080Z,3.60
2023-09-30T17:34:23.150Z,3.93
2023-09-30T17:36:50.445Z,3.10
2023-09-30T17:39:18.182Z,8.23
2023-09-30T17:41:46.468Z,6.57
2023-09-30T17:44:14.561Z,5.43
2023-09-30T17:46:41.668Z,4.43
2023-09-30T17:49:08.925Z,5.30
2023-09-30T17:51:36.007Z,5.50
2023-09-30T17:54:03.066Z,5.50
2023-09-30T17:56:30.150Z,5.43
2023-09-30T17:58:57.380Z,5.50
2023-09-30T18:01:26.231Z,4.53
2023-09-30T18:03:56.531Z,4.67
2023-09-30T18:06:23.627Z,4.90
2023-09-30T18:08:50.556Z,5.93
2023-09-30T18:11:18.686Z,6.80
2023-09-30T18:13:46.316Z,6.30
2023-09-30T18:16:13.357Z,5.37
2023-09-30T18:18:41.460Z,5.60
2023-09-30T18:21:13.873Z,4.23
2023-09-30T18:23:41.369Z,4.30
2023-09-30T18:26:08.454Z,4.53
2023-09-30T18:28:35.732Z,4.53
2023-09-30T18:31:03.109Z,4.33
2023-09-30T18:33:31.298Z,4.43
2023-09-30T18:35:59.812Z,4.80
2023-09-30T18:38:27.026Z,4.27
2023-09-30T18:40:54.506Z,5.28
2023-09-30T18:43:23.726Z,5.17
2023-09-30T18:45:51.168Z,5.90
2023-09-30T18:48:18.222Z,5.87
2023-09-30T18:50:54.258Z,5.60
2023-09-30T18:53:21.550Z,4.93
2023-09-30T18:55:49.018Z,4.93
2023-09-30T18:58:16.992Z,6.00
2023-09-30T19:00:46.802Z,5.40
2023-09-30T19:03:14.151Z,5.70
2023-09-30T19:05:41.713Z,5.13
2023-09-30T19:08:09.649Z,4.97
2023-09-30T19:10:38.186Z,5.53
2023-09-30T19:13:05.729Z,5.90
2023-09-30T19:15:32.995Z,5.73
2023-09-30T19:18:00.798Z,5.40
2023-09-30T19:20:27.845Z,5.27
2023-09-30T19:22:57.602Z,5.10
2023-09-30T19:25:24.992Z,5.60
2023-09-30T19:27:52.478Z,5.43
2023-09-30T19:30:20.247Z,5.83
2023-09-30T19:32:47.212Z,6.30
2023-09-30T19:35:14.075Z,6.40
2023-09-30T19:37:41.144Z,6.00
2023-09-30T19:40:08.939Z,5.97
2023-09-30T19:42:37.092Z,5.63
2023-09-30T19:45:04.448Z,6.10
2023-09-30T19:47:32.427Z,5.97
2023-09-30T19:49:59.438Z,5.50
2023-09-30T19:52:31.052Z,5.50
2023-09-30T19:54:58.051Z,6.00
2023-09-30T19:57:25.672Z,5.63
2023-09-30T19:59:52.644Z,5.40
2023-09-30T20:02:20.904Z,5.60
2023-09-30T20:04:49.283Z,6.00
2023-09-30T20:07:16.606Z,5.30
2023-09-30T20:09:44.086Z,6.07
2023-09-30T20:12:13.161Z,6.07
2023-09-30T20:14:41.817Z,6.23
2023-09-30T20:17:09.185Z,5.90
2023-09-30T20:19:36.129Z,6.27
2023-09-30T20:22:05.524Z,6.50
2023-09-30T20:24:33.761Z,6.20
2023-09-30T20:27:01.349Z,7.33
2023-09-30T20:29:29.837Z,6.93
2023-09-30T20:31:57.521Z,6.87
2023-09-30T20:34:24.712Z,6.97
2023-09-30T20:36:53.271Z,6.50
2023-09-30T20:39:22.132Z,7.27
2023-09-30T20:41:51.582Z,7.13
2023-09-30T20:44:18.837Z,6.80
2023-09-30T20:46:47.527Z,6.90
2023-09-30T20:49:14.667Z,7.03
2023-09-30T20:51:41.544Z,8.18
2023-09-30T20:54:09.147Z,7.73
2023-09-30T20:56:37.245Z,8.37
2023-09-30T20:59:06.846Z,8.20
2023-09-30T21:01:34.429Z,10.13
2023-09-30T21:04:01.788Z,7.80
2023-09-30T21:06:29.983Z,8.32
2023-09-30T21:08:57.150Z,8.73
2023-09-30T21:11:24.242Z,7.83
2023-09-30T21:13:52.510Z,9.07
2023-09-30T21:16:19.638Z,7.83
2023-09-30T21:21:13.974Z,7.67
2023-09-30T21:23:41.180Z,7.73
2023-09-30T21:26:14.849Z,6.87
2023-09-30T21:28:47.106Z,8.17
2023-09-30T21:31:18.088Z,7.63
2023-09-30T21:33:51.029Z,7.83
2023-09-30T21:36:21.775Z,7.17
2023-09-30T21:38:49.946Z,8.37
2023-09-30T21:41:20.392Z,8.23
2023-09-30T21:43:47.478Z,7.97
2023-09-30T21:46:14.881Z,8.20
2023-09-30T21:48:42.448Z,8.17
2023-09-30T21:51:09.844Z,8.20
2023-09-30T21:53:37.276Z,7.63
2023-09-30T21:56:05.218Z,8.63
2023-09-30T21:58:35.365Z,8.00
2023-09-30T22:01:03.406Z,8.20
2023-09-30T22:03:30.391Z,8.53
2023-09-30T22:05:57.616Z,8.20
2023-09-30T22:08:26.682Z,8.27
2023-09-30T22:10:55.272Z,7.90
2023-09-30T22:13:24.014Z,7.77
2023-09-30T22:15:51.288Z,7.90
2023-09-30T22:18:20.156Z,8.00
2023-09-30T22:20:48.018Z,8.37
2023-09-30T22:23:15.060Z,8.00
2023-09-30T22:25:42.184Z,8.07
2023-09-30T22:28:09.972Z,7.70
2023-09-30T22:30:38.067Z,7.57
2023-09-30T22:33:08.620Z,7.70
2023-09-30T22:35:36.172Z,8.23
2023-09-30T22:38:04.516Z,8.23
2023-09-30T22:40:31.787Z,8.83
2023-09-30T22:43:00.269Z,7.77
2023-09-30T22:45:27.610Z,7.67
2023-09-30T22:47:54.774Z,8.23
2023-09-30T22:50:23.432Z,7.40
2023-09-30T22:52:51.502Z,8.07
2023-09-30T22:55:19.258Z,7.43
2023-09-30T22:57:47.383Z,8.03
2023-09-30T23:00:16.653Z,8.00
2023-09-30T23:02:44.941Z,8.80
2023-09-30T23:05:14.890Z,7.87
2023-09-30T23:07:45.183Z,8.40
2023-09-30T23:10:16.181Z,8.03
2023-09-30T23:12:43.571Z,8.20
2023-09-30T23:15:15.898Z,8.70
2023-09-30T23:17:45.340Z,8.70
2023-09-30T23:20:16.363Z,7.87
2023-09-30T23:22:55.321Z,8.77
2023-09-30T23:25:43.796Z,8.30
2023-09-30T23:28:11.786Z,7.47
2023-09-30T23:30:39.442Z,8.53
2023-09-30T23:33:07.039Z,8.27
2023-09-30T23:35:38.049Z,8.87
2023-09-30T23:38:07.008Z,9.10
2023-09-30T23:40:34.844Z,8.80
2023-09-30T23:43:02.895Z,8.73
2023-09-30T23:45:32.511Z,8.77
2023-09-30T23:48:00.066Z,9.00
2023-09-30T23:50:30.627Z,8.40
2023-09-30T23:52:59.586Z,8.97
2023-09-30T23:55:28.634Z,9.77
2023-09-30T23:57:56.231Z,9.77
